sensor_id;sensor_type;location;lat;lon;timestamp;pressure;altitude;pressure_sealevel;temperature;humidity
46127;BME280;31859;55.030;-1.550;2022-10-31T00:00:14;69454.71;;;20.55;95.59
46127;BME280;31859;55.030;-1.550;2022-10-31T00:02:41;69454.71;;;20.99;95.59
46127;BME280;31859;55.030;-1.550;2022-10-31T00:05:09;69454.71;;;20.99;95.59
46127;BME280;31859;55.030;-1.550;2022-10-31T00:07:36;69454.71;;;20.99;95.59
46127;BME280;31859;55.030;-1.550;2022-10-31T00:10:04;69454.71;;;20.99;95.59
46127;BME280;31859;55.030;-1.550;2022-10-31T00:12:31;69454.71;;;20.77;95.59
46127;BME280;31859;55.030;-1.550;2022-10-31T00:14:58;69454.71;;;20.28;95.59
46127;BME280;31859;55.030;-1.550;2022-10-31T00:17:25;69454.71;;;20.06;95.59
46127;BME280;31859;55.030;-1.550;2022-10-31T00:19:53;69454.71;;;19.79;95.59
46127;BME280;31859;55.030;-1.550;2022-10-31T00:22:20;69454.71;;;20.28;95.59
46127;BME280;31859;55.030;-1.550;2022-10-31T00:24:47;69454.71;;;20.55;95.59
46127;BME280;31859;55.030;-1.550;2022-10-31T00:27:14;69454.71;;;20.55;95.59
46127;BME280;31859;55.030;-1.550;2022-10-31T00:29:41;69454.71;;;20.77;95.59
46127;BME280;31859;55.030;-1.550;2022-10-31T00:32:08;69454.71;;;20.77;95.59
46127;BME280;31859;55.030;-1.550;2022-10-31T00:34:40;69454.71;;;20.55;95.59
46127;BME280;31859;55.030;-1.550;2022-10-31T00:37:08;69454.71;;;20.77;95.59
46127;BME280;31859;55.030;-1.550;2022-10-31T00:39:35;69454.71;;;20.99;95.59
46127;BME280;31859;55.030;-1.550;2022-10-31T00:42:02;69454.71;;;20.99;95.59
46127;BME280;31859;55.030;-1.550;2022-10-31T00:44:28;69454.71;;;21.48;95.59
46127;BME280;31859;55.030;-1.550;2022-10-31T00:46:55;69454.71;;;21.48;95.59
46127;BME280;31859;55.030;-1.550;2022-10-31T00:49:22;69454.71;;;20.99;95.59
46127;BME280;31859;55.030;-1.550;2022-10-31T00:51:49;69454.71;;;21.26;95.59
46127;BME280;31859;55.030;-1.550;2022-10-31T00:54:17;69454.71;;;20.77;95.59
46127;BME280;31859;55.030;-1.550;2022-10-31T00:56:44;69454.71;;;20.77;95.59
46127;BME280;31859;55.030;-1.550;2022-10-31T00:59:12;69454.71;;;20.77;95.59
46127;BME280;31859;55.030;-1.550;2022-10-31T01:01:39;69454.71;;;20.99;95.59
46127;BME280;31859;55.030;-1.550;2022-10-31T01:04:06;69454.71;;;20.55;95.59
46127;BME280;31859;55.030;-1.550;2022-10-31T01:06:33;69454.71;;;20.55;95.59
46127;BME280;31859;55.030;-1.550;2022-10-31T01:09:01;69454.71;;;20.55;95.59
46127;BME280;31859;55.030;-1.550;2022-10-31T01:11:28;69454.71;;;20.99;95.59
46127;BME280;31859;55.030;-1.550;2022-10-31T01:13:55;69454.71;;;20.99;95.59
46127;BME280;31859;55.030;-1.550;2022-10-31T01:16:24;69454.71;;;20.99;95.59
46127;BME280;31859;55.030;-1.550;2022-10-31T01:18:52;69454.71;;;20.99;95.59
46127;BME280;31859;55.030;-1.550;2022-10-31T01:21:22;69454.71;;;21.26;95.59
46127;BME280;31859;55.030;-1.550;2022-10-31T01:23:52;69454.71;;;20.99;95.59
46127;BME280;31859;55.030;-1.550;2022-10-31T01:26:24;69454.71;;;20.99;95.59
46127;BME280;31859;55.030;-1.550;2022-10-31T01:28:52;69454.71;;;20.99;95.59
46127;BME280;31859;55.030;-1.550;2022-10-31T01:31:22;69454.71;;;20.99;95.59
46127;BME280;31859;55.030;-1.550;2022-10-31T01:33:50;69454.71;;;21.48;95.59
46127;BME280;31859;55.030;-1.550;2022-10-31T01:36:20;69454.71;;;20.99;95.59
46127;BME280;31859;55.030;-1.550;2022-10-31T01:38:49;69454.71;;;21.26;95.59
46127;BME280;31859;55.030;-1.550;2022-10-31T01:41:19;69454.71;;;21.26;95.59
46127;BME280;31859;55.030;-1.550;2022-10-31T01:43:49;69454.71;;;20.99;95.59
46127;BME280;31859;55.030;-1.550;2022-10-31T01:46:20;69454.71;;;20.99;95.59
46127;BME280;31859;55.030;-1.550;2022-10-31T01:48:49;69454.71;;;20.99;95.59
46127;BME280;31859;55.030;-1.550;2022-10-31T01:51:21;69454.71;;;20.99;95.59
46127;BME280;31859;55.030;-1.550;2022-10-31T01:53:51;69454.71;;;20.99;95.59
46127;BME280;31859;55.030;-1.550;2022-10-31T01:56:21;69454.71;;;20.77;95.59
46127;BME280;31859;55.030;-1.550;2022-10-31T01:58:49;69454.71;;;20.55;95.59
46127;BME280;31859;55.030;-1.550;2022-10-31T02:01:17;69454.71;;;20.06;95.59
46127;BME280;31859;55.030;-1.550;2022-10-31T02:03:45;69454.71;;;20.06;95.59
46127;BME280;31859;55.030;-1.550;2022-10-31T02:06:21;69454.71;;;20.06;95.59
46127;BME280;31859;55.030;-1.550;2022-10-31T02:08:53;69454.71;;;19.79;95.59
46127;BME280;31859;55.030;-1.550;2022-10-31T02:11:21;69454.71;;;20.06;95.59
46127;BME280;31859;55.030;-1.550;2022-10-31T02:13:49;69454.71;;;20.06;95.59
46127;BME280;31859;55.030;-1.550;2022-10-31T02:16:17;69454.71;;;20.06;95.59
46127;BME280;31859;55.030;-1.550;2022-10-31T02:18:44;69454.71;;;19.79;95.59
46127;BME280;31859;55.030;-1.550;2022-10-31T02:21:15;69454.71;;;19.79;95.59
46127;BME280;31859;55.030;-1.550;2022-10-31T02:25:02;69454.71;;;20.28;95.59
46127;BME280;31859;55.030;-1.550;2022-10-31T02:28:03;69454.71;;;20.55;95.59
46127;BME280;31859;55.030;-1.550;2022-10-31T02:30:48;69454.71;;;20.55;95.59
46127;BME280;31859;55.030;-1.550;2022-10-31T02:33:20;69454.71;;;20.77;95.59
46127;BME280;31859;55.030;-1.550;2022-10-31T02:35:58;69454.71;;;20.99;95.59
46127;BME280;31859;55.030;-1.550;2022-10-31T02:38:42;69454.71;;;20.99;95.59
46127;BME280;31859;55.030;-1.550;2022-10-31T02:41:19;69454.71;;;20.99;95.59
46127;BME280;31859;55.030;-1.550;2022-10-31T02:43:57;69454.71;;;20.99;95.59
46127;BME280;31859;55.030;-1.550;2022-10-31T02:46:32;69454.71;;;20.99;95.59
46127;BME280;31859;55.030;-1.550;2022-10-31T02:49:05;69454.71;;;20.99;95.59
46127;BME280;31859;55.030;-1.550;2022-10-31T02:51:34;69454.71;;;20.55;95.59
46127;BME280;31859;55.030;-1.550;2022-10-31T02:54:02;69454.71;;;20.55;95.59
46127;BME280;31859;55.030;-1.550;2022-10-31T02:56:30;69454.71;;;20.06;95.59
46127;BME280;31859;55.030;-1.550;2022-10-31T02:58:59;69454.71;;;20.77;95.59
46127;BME280;31859;55.030;-1.550;2022-10-31T03:01:53;69454.71;;;20.99;95.59
46127;BME280;31859;55.030;-1.550;2022-10-31T03:04:30;69454.71;;;20.99;95.59
46127;BME280;31859;55.030;-1.550;2022-10-31T03:07:06;69454.71;;;20.99;95.59
46127;BME280;31859;55.030;-1.550;2022-10-31T03:09:44;69454.71;;;20.99;95.59
46127;BME280;31859;55.030;-1.550;2022-10-31T03:12:25;69454.71;;;21.26;95.59
46127;BME280;31859;55.030;-1.550;2022-10-31T03:15:04;69454.71;;;21.48;95.59
46127;BME280;31859;55.030;-1.550;2022-10-31T03:17:36;69454.71;;;21.48;95.59
46127;BME280;31859;55.030;-1.550;2022-10-31T03:20:06;69454.71;;;21.97;95.59
46127;BME280;31859;55.030;-1.550;2022-10-31T03:22:38;69454.71;;;21.48;95.59
46127;BME280;31859;55.030;-1.550;2022-10-31T03:25:08;69454.71;;;21.48;95.59
46127;BME280;31859;55.030;-1.550;2022-10-31T03:27:37;69454.71;;;21.26;95.59
46127;BME280;31859;55.030;-1.550;2022-10-31T03:30:08;69454.71;;;21.48;95.59
46127;BME280;31859;55.030;-1.550;2022-10-31T03:32:41;69454.71;;;21.97;95.59
46127;BME280;31859;55.030;-1.550;2022-10-31T03:35:13;69454.71;;;21.48;95.59
46127;BME280;31859;55.030;-1.550;2022-10-31T03:37:42;69454.71;;;21.97;95.59
46127;BME280;31859;55.030;-1.550;2022-10-31T03:40:11;69454.71;;;21.70;95.59
46127;BME280;31859;55.030;-1.550;2022-10-31T03:42:41;69454.71;;;21.48;95.59
46127;BME280;31859;55.030;-1.550;2022-10-31T03:45:13;69454.71;;;21.26;95.59
46127;BME280;31859;55.030;-1.550;2022-10-31T03:47:43;69454.71;;;20.99;95.59
46127;BME280;31859;55.030;-1.550;2022-10-31T03:50:13;69454.71;;;20.99;95.59
46127;BME280;31859;55.030;-1.550;2022-10-31T03:52:44;69454.71;;;20.99;95.59
46127;BME280;31859;55.030;-1.550;2022-10-31T03:55:17;69454.71;;;20.77;95.59
46127;BME280;31859;55.030;-1.550;2022-10-31T03:57:50;69454.71;;;20.99;95.59
46127;BME280;31859;55.030;-1.550;2022-10-31T04:00:19;69454.71;;;20.99;95.59
46127;BME280;31859;55.030;-1.550;2022-10-31T04:02:51;69454.71;;;20.99;95.59
46127;BME280;31859;55.030;-1.550;2022-10-31T04:05:21;69454.71;;;20.99;95.59
46127;BME280;31859;55.030;-1.550;2022-10-31T04:07:53;69454.71;;;20.99;95.59
46127;BME280;31859;55.030;-1.550;2022-10-31T04:10:22;69454.71;;;20.99;95.59
46127;BME280;31859;55.030;-1.550;2022-10-31T04:12:55;69454.71;;;20.99;95.59
46127;BME280;31859;55.030;-1.550;2022-10-31T04:15:25;69454.71;;;20.99;95.59
46127;BME280;31859;55.030;-1.550;2022-10-31T04:17:56;69454.71;;;20.99;95.59
46127;BME280;31859;55.030;-1.550;2022-10-31T04:20:34;69454.71;;;21.26;95.59
46127;BME280;31859;55.030;-1.550;2022-10-31T04:23:03;69454.71;;;20.99;95.59
46127;BME280;31859;55.030;-1.550;2022-10-31T04:25:31;69454.71;;;20.99;95.59
46127;BME280;31859;55.030;-1.550;2022-10-31T04:27:58;69454.71;;;20.77;95.59
46127;BME280;31859;55.030;-1.550;2022-10-31T04:30:25;69454.71;;;20.55;95.59
46127;BME280;31859;55.030;-1.550;2022-10-31T04:32:52;69454.71;;;20.55;95.59
46127;BME280;31859;55.030;-1.550;2022-10-31T04:35:19;69454.71;;;20.99;95.59
46127;BME280;31859;55.030;-1.550;2022-10-31T04:37:47;69454.71;;;20.99;95.59
46127;BME280;31859;55.030;-1.550;2022-10-31T04:40:14;69454.71;;;21.48;95.59
46127;BME280;31859;55.030;-1.550;2022-10-31T04:42:42;69454.71;;;21.26;95.59
46127;BME280;31859;55.030;-1.550;2022-10-31T04:45:10;69454.71;;;20.99;95.59
46127;BME280;31859;55.030;-1.550;2022-10-31T04:47:37;69454.71;;;20.99;95.59
46127;BME280;31859;55.030;-1.550;2022-10-31T04:50:05;69454.71;;;20.99;95.59
46127;BME280;31859;55.030;-1.550;2022-10-31T04:52:32;69454.71;;;21.26;95.59
46127;BME280;31859;55.030;-1.550;2022-10-31T04:55:06;69454.71;;;21.26;95.59
46127;BME280;31859;55.030;-1.550;2022-10-31T04:57:39;69454.71;;;20.99;95.59
46127;BME280;31859;55.030;-1.550;2022-10-31T05:00:08;69454.71;;;20.77;95.59
46127;BME280;31859;55.030;-1.550;2022-10-31T05:02:43;69454.71;;;20.99;95.59
46127;BME280;31859;55.030;-1.550;2022-10-31T05:05:10;69454.71;;;20.99;95.59
46127;BME280;31859;55.030;-1.550;2022-10-31T05:07:39;69454.71;;;20.99;95.59
46127;BME280;31859;55.030;-1.550;2022-10-31T05:10:06;69454.71;;;20.55;95.59
46127;BME280;31859;55.030;-1.550;2022-10-31T05:12:34;69454.71;;;21.26;95.59
46127;BME280;31859;55.030;-1.550;2022-10-31T05:15:01;69454.71;;;21.48;95.59
46127;BME280;31859;55.030;-1.550;2022-10-31T05:17:28;69454.71;;;21.26;95.59
46127;BME280;31859;55.030;-1.550;2022-10-31T05:19:56;69454.71;;;21.70;95.59
46127;BME280;31859;55.030;-1.550;2022-10-31T05:22:23;69454.71;;;21.97;95.59
46127;BME280;31859;55.030;-1.550;2022-10-31T05:24:51;69454.71;;;21.97;95.59
46127;BME280;31859;55.030;-1.550;2022-10-31T05:27:18;69454.71;;;21.97;95.59
46127;BME280;31859;55.030;-1.550;2022-10-31T05:29:45;69454.71;;;21.97;95.59
46127;BME280;31859;55.030;-1.550;2022-10-31T05:32:12;69454.71;;;21.97;95.59
46127;BME280;31859;55.030;-1.550;2022-10-31T05:34:39;69454.71;;;21.97;95.59
46127;BME280;31859;55.030;-1.550;2022-10-31T05:37:07;69454.71;;;21.70;95.59
46127;BME280;31859;55.030;-1.550;2022-10-31T05:39:34;69454.71;;;21.48;95.59
46127;BME280;31859;55.030;-1.550;2022-10-31T05:42:02;69454.71;;;21.70;95.59
46127;BME280;31859;55.030;-1.550;2022-10-31T05:44:29;69454.71;;;21.97;95.59
46127;BME280;31859;55.030;-1.550;2022-10-31T05:46:57;69454.71;;;21.70;95.59
46127;BME280;31859;55.030;-1.550;2022-10-31T05:49:24;69454.71;;;21.26;95.59
46127;BME280;31859;55.030;-1.550;2022-10-31T05:51:51;69454.71;;;21.48;95.59
46127;BME280;31859;55.030;-1.550;2022-10-31T05:54:18;69454.71;;;21.70;95.59
46127;BME280;31859;55.030;-1.550;2022-10-31T05:56:45;69454.71;;;21.48;95.59
46127;BME280;31859;55.030;-1.550;2022-10-31T05:59:13;69454.71;;;21.48;95.59
46127;BME280;31859;55.030;-1.550;2022-10-31T06:01:40;69454.71;;;21.26;95.59
46127;BME280;31859;55.030;-1.550;2022-10-31T06:04:07;69454.71;;;21.26;95.59
46127;BME280;31859;55.030;-1.550;2022-10-31T06:06:34;69454.71;;;20.99;95.59
46127;BME280;31859;55.030;-1.550;2022-10-31T06:09:01;69454.71;;;21.48;95.59
46127;BME280;31859;55.030;-1.550;2022-10-31T06:11:28;69454.71;;;21.48;95.59
46127;BME280;31859;55.030;-1.550;2022-10-31T06:13:56;69454.71;;;21.26;95.59
46127;BME280;31859;55.030;-1.550;2022-10-31T06:16:22;69454.71;;;21.26;95.59
46127;BME280;31859;55.030;-1.550;2022-10-31T06:18:50;69454.71;;;21.26;95.59
46127;BME280;31859;55.030;-1.550;2022-10-31T06:21:17;69454.71;;;21.26;95.59
46127;BME280;31859;55.030;-1.550;2022-10-31T06:23:44;69454.71;;;20.99;95.59
46127;BME280;31859;55.030;-1.550;2022-10-31T06:26:12;69454.71;;;21.26;95.59
46127;BME280;31859;55.030;-1.550;2022-10-31T06:28:39;69454.71;;;20.99;95.59
46127;BME280;31859;55.030;-1.550;2022-10-31T06:31:06;69454.71;;;21.26;95.59
46127;BME280;31859;55.030;-1.550;2022-10-31T06:33:34;69454.71;;;21.48;95.59
46127;BME280;31859;55.030;-1.550;2022-10-31T06:36:02;69454.71;;;21.26;95.59
46127;BME280;31859;55.030;-1.550;2022-10-31T06:38:29;69454.71;;;20.99;95.59
46127;BME280;31859;55.030;-1.550;2022-10-31T06:40:56;69454.71;;;20.99;95.59
46127;BME280;31859;55.030;-1.550;2022-10-31T06:43:23;69454.71;;;21.26;95.59
46127;BME280;31859;55.030;-1.550;2022-10-31T06:45:51;69454.71;;;20.99;95.59
46127;BME280;31859;55.030;-1.550;2022-10-31T06:48:18;69454.71;;;21.26;95.59
46127;BME280;31859;55.030;-1.550;2022-10-31T06:50:46;69454.71;;;21.48;95.59
46127;BME280;31859;55.030;-1.550;2022-10-31T06:53:14;69454.71;;;21.26;95.59
46127;BME280;31859;55.030;-1.550;2022-10-31T06:55:41;69454.71;;;21.48;95.59
46127;BME280;31859;55.030;-1.550;2022-10-31T06:58:10;69454.71;;;21.48;95.59
46127;BME280;31859;55.030;-1.550;2022-10-31T07:00:37;69454.71;;;21.48;95.59
46127;BME280;31859;55.030;-1.550;2022-10-31T07:03:06;69454.71;;;21.48;95.59
46127;BME280;31859;55.030;-1.550;2022-10-31T07:05:34;69454.71;;;21.48;95.59
46127;BME280;31859;55.030;-1.550;2022-10-31T07:08:05;69454.71;;;21.48;95.59
46127;BME280;31859;55.030;-1.550;2022-10-31T07:10:34;69454.71;;;21.48;95.59
46127;BME280;31859;55.030;-1.550;2022-10-31T07:13:03;69454.71;;;21.48;95.59
46127;BME280;31859;55.030;-1.550;2022-10-31T07:15:34;69454.71;;;21.70;95.59
46127;BME280;31859;55.030;-1.550;2022-10-31T07:18:02;69454.71;;;21.48;95.59
46127;BME280;31859;55.030;-1.550;2022-10-31T07:20:30;69454.71;;;21.48;95.59
46127;BME280;31859;55.030;-1.550;2022-10-31T07:22:58;69454.71;;;21.97;95.59
46127;BME280;31859;55.030;-1.550;2022-10-31T07:25:26;69454.71;;;21.48;95.59
46127;BME280;31859;55.030;-1.550;2022-10-31T07:27:53;69454.71;;;21.48;95.59
46127;BME280;31859;55.030;-1.550;2022-10-31T07:30:20;69454.71;;;21.48;95.59
46127;BME280;31859;55.030;-1.550;2022-10-31T07:32:53;69454.71;;;21.48;95.59
46127;BME280;31859;55.030;-1.550;2022-10-31T07:35:21;69454.71;;;21.70;95.59
46127;BME280;31859;55.030;-1.550;2022-10-31T07:37:49;69454.71;;;21.48;95.59
46127;BME280;31859;55.030;-1.550;2022-10-31T07:40:23;69454.71;;;21.48;95.59
46127;BME280;31859;55.030;-1.550;2022-10-31T07:42:52;69454.71;;;21.48;95.59
46127;BME280;31859;55.030;-1.550;2022-10-31T07:45:20;69454.71;;;21.48;95.59
46127;BME280;31859;55.030;-1.550;2022-10-31T07:47:49;69454.71;;;21.26;95.59
46127;BME280;31859;55.030;-1.550;2022-10-31T07:50:17;69454.71;;;21.26;95.59
46127;BME280;31859;55.030;-1.550;2022-10-31T07:52:45;69454.71;;;21.70;95.59
46127;BME280;31859;55.030;-1.550;2022-10-31T07:55:13;69454.71;;;21.97;95.59
46127;BME280;31859;55.030;-1.550;2022-10-31T07:57:40;69454.71;;;22.46;95.59
46127;BME280;31859;55.030;-1.550;2022-10-31T08:00:10;69454.71;;;21.70;95.59
46127;BME280;31859;55.030;-1.550;2022-10-31T08:02:37;69454.71;;;21.97;95.59
46127;BME280;31859;55.030;-1.550;2022-10-31T08:05:05;69454.71;;;21.70;95.59
46127;BME280;31859;55.030;-1.550;2022-10-31T08:07:36;69454.71;;;21.48;95.59
46127;BME280;31859;55.030;-1.550;2022-10-31T08:10:04;69454.71;;;21.48;95.59
46127;BME280;31859;55.030;-1.550;2022-10-31T08:12:32;69454.71;;;21.48;95.59
46127;BME280;31859;55.030;-1.550;2022-10-31T08:14:59;69454.71;;;20.99;95.59
46127;BME280;31859;55.030;-1.550;2022-10-31T08:17:27;69454.71;;;20.99;95.59
46127;BME280;31859;55.030;-1.550;2022-10-31T08:19:55;69454.71;;;20.77;95.59
46127;BME280;31859;55.030;-1.550;2022-10-31T08:22:22;69454.71;;;21.48;95.59
46127;BME280;31859;55.030;-1.550;2022-10-31T08:24:49;69454.71;;;21.70;95.59
46127;BME280;31859;55.030;-1.550;2022-10-31T08:27:16;69454.71;;;21.26;95.59
46127;BME280;31859;55.030;-1.550;2022-10-31T08:29:43;69454.71;;;21.48;95.59
46127;BME280;31859;55.030;-1.550;2022-10-31T08:32:11;69454.71;;;20.99;95.59
46127;BME280;31859;55.030;-1.550;2022-10-31T08:34:38;69454.71;;;21.48;95.59
46127;BME280;31859;55.030;-1.550;2022-10-31T08:37:06;69454.71;;;20.99;95.59
46127;BME280;31859;55.030;-1.550;2022-10-31T08:39:33;69454.71;;;20.99;95.59
46127;BME280;31859;55.030;-1.550;2022-10-31T08:42:00;69454.71;;;20.77;95.59
46127;BME280;31859;55.030;-1.550;2022-10-31T08:44:27;69454.71;;;20.99;95.59
46127;BME280;31859;55.030;-1.550;2022-10-31T08:46:54;69454.71;;;20.77;95.59
46127;BME280;31859;55.030;-1.550;2022-10-31T08:49:22;69454.71;;;20.77;95.59
46127;BME280;31859;55.030;-1.550;2022-10-31T08:51:49;69454.71;;;20.55;95.59
46127;BME280;31859;55.030;-1.550;2022-10-31T08:54:16;69454.71;;;20.77;95.59
46127;BME280;31859;55.030;-1.550;2022-10-31T08:56:43;69454.71;;;20.77;95.59
46127;BME280;31859;55.030;-1.550;2022-10-31T08:59:10;69454.71;;;20.99;95.59
46127;BME280;31859;55.030;-1.550;2022-10-31T09:01:38;69454.71;;;20.77;95.59
46127;BME280;31859;55.030;-1.550;2022-10-31T09:04:05;69454.71;;;20.99;95.59
46127;BME280;31859;55.030;-1.550;2022-10-31T09:06:32;69454.71;;;21.48;95.59
46127;BME280;31859;55.030;-1.550;2022-10-31T09:09:00;69454.71;;;20.99;95.59
46127;BME280;31859;55.030;-1.550;2022-10-31T09:11:27;69454.71;;;20.99;95.59
46127;BME280;31859;55.030;-1.550;2022-10-31T09:13:56;69454.71;;;20.99;95.59
46127;BME280;31859;55.030;-1.550;2022-10-31T09:16:23;69454.71;;;21.26;95.59
46127;BME280;31859;55.030;-1.550;2022-10-31T09:18:50;69454.71;;;20.99;95.59
46127;BME280;31859;55.030;-1.550;2022-10-31T09:21:20;69454.71;;;20.99;95.59
46127;BME280;31859;55.030;-1.550;2022-10-31T09:23:47;69454.71;;;21.26;95.59
46127;BME280;31859;55.030;-1.550;2022-10-31T09:26:14;69454.71;;;21.48;95.59
46127;BME280;31859;55.030;-1.550;2022-10-31T09:28:41;69454.71;;;20.99;95.59
46127;BME280;31859;55.030;-1.550;2022-10-31T09:31:09;69454.71;;;21.48;95.59
46127;BME280;31859;55.030;-1.550;2022-10-31T09:33:36;69454.71;;;20.99;95.59
46127;BME280;31859;55.030;-1.550;2022-10-31T09:36:03;69454.71;;;20.99;95.59
46127;BME280;31859;55.030;-1.550;2022-10-31T09:38:31;69454.71;;;20.99;95.59
46127;BME280;31859;55.030;-1.550;2022-10-31T09:41:07;69454.71;;;20.99;95.59
46127;BME280;31859;55.030;-1.550;2022-10-31T09:43:43;69454.71;;;21.70;95.59
46127;BME280;31859;55.030;-1.550;2022-10-31T09:46:20;69454.71;;;21.48;95.59
46127;BME280;31859;55.030;-1.550;2022-10-31T09:49:16;69454.71;;;21.26;95.59
46127;BME280;31859;55.030;-1.550;2022-10-31T09:51:59;69454.71;;;21.48;95.59
46127;BME280;31859;55.030;-1.550;2022-10-31T09:54:32;69454.71;;;20.99;95.59
46127;BME280;31859;55.030;-1.550;2022-10-31T09:57:02;69454.71;;;20.99;95.59
46127;BME280;31859;55.030;-1.550;2022-10-31T09:59:33;69454.71;;;21.48;95.59
46127;BME280;31859;55.030;-1.550;2022-10-31T10:02:04;69454.71;;;21.48;95.59
46127;BME280;31859;55.030;-1.550;2022-10-31T10:04:38;69454.71;;;21.70;95.59
46127;BME280;31859;55.030;-1.550;2022-10-31T10:07:24;69454.71;;;21.48;95.59
46127;BME280;31859;55.030;-1.550;2022-10-31T10:09:53;69454.71;;;21.48;95.59
46127;BME280;31859;55.030;-1.550;2022-10-31T10:12:33;69454.71;;;21.48;95.59
46127;BME280;31859;55.030;-1.550;2022-10-31T10:15:20;69454.71;;;21.26;95.59
46127;BME280;31859;55.030;-1.550;2022-10-31T10:17:59;69454.71;;;20.99;95.59
46127;BME280;31859;55.030;-1.550;2022-10-31T10:20:37;69454.71;;;20.99;95.59
46127;BME280;31859;55.030;-1.550;2022-10-31T10:23:29;69454.71;;;20.99;95.59
46127;BME280;31859;55.030;-1.550;2022-10-31T10:26:05;69454.71;;;20.99;95.59
46127;BME280;31859;55.030;-1.550;2022-10-31T10:28:38;69454.71;;;20.99;95.59
46127;BME280;31859;55.030;-1.550;2022-10-31T10:31:11;69454.71;;;20.99;95.59
46127;BME280;31859;55.030;-1.550;2022-10-31T10:33:45;69454.71;;;20.77;95.59
46127;BME280;31859;55.030;-1.550;2022-10-31T10:36:21;69454.71;;;20.55;95.59
46127;BME280;31859;55.030;-1.550;2022-10-31T10:38:55;69454.71;;;20.28;95.59
46127;BME280;31859;55.030;-1.550;2022-10-31T10:41:27;69454.71;;;20.55;95.59
46127;BME280;31859;55.030;-1.550;2022-10-31T10:43:56;69454.71;;;20.55;95.59
46127;BME280;31859;55.030;-1.550;2022-10-31T10:46:29;69454.71;;;20.55;95.59
46127;BME280;31859;55.030;-1.550;2022-10-31T10:49:07;69454.71;;;20.99;95.59
46127;BME280;31859;55.030;-1.550;2022-10-31T10:51:43;69454.71;;;20.99;95.59
46127;BME280;31859;55.030;-1.550;2022-10-31T10:54:33;69454.71;;;20.55;95.59
46127;BME280;31859;55.030;-1.550;2022-10-31T10:57:11;69454.71;;;20.55;95.59
46127;BME280;31859;55.030;-1.550;2022-10-31T10:59:41;69454.71;;;20.55;95.59
46127;BME280;31859;55.030;-1.550;2022-10-31T11:02:17;69454.71;;;20.77;95.59
46127;BME280;31859;55.030;-1.550;2022-10-31T11:04:48;69454.71;;;20.55;95.59
46127;BME280;31859;55.030;-1.550;2022-10-31T11:07:16;69454.71;;;20.77;95.59
46127;BME280;31859;55.030;-1.550;2022-10-31T11:09:43;69454.71;;;20.99;95.59
46127;BME280;31859;55.030;-1.550;2022-10-31T11:12:18;69454.71;;;20.99;95.59
46127;BME280;31859;55.030;-1.550;2022-10-31T11:14:50;69454.71;;;20.99;95.59
46127;BME280;31859;55.030;-1.550;2022-10-31T11:17:25;69454.71;;;20.55;95.59
46127;BME280;31859;55.030;-1.550;2022-10-31T11:20:26;69454.71;;;20.77;95.59
46127;BME280;31859;55.030;-1.550;2022-10-31T11:23:02;69454.71;;;20.55;95.59
46127;BME280;31859;55.030;-1.550;2022-10-31T11:25:29;69454.71;;;20.55;95.59
46127;BME280;31859;55.030;-1.550;2022-10-31T11:28:00;69454.71;;;20.55;95.59
46127;BME280;31859;55.030;-1.550;2022-10-31T11:30:28;69454.71;;;20.55;95.59
46127;BME280;31859;55.030;-1.550;2022-10-31T11:32:57;69454.71;;;20.06;95.59
46127;BME280;31859;55.030;-1.550;2022-10-31T11:35:25;69454.71;;;20.55;95.59
46127;BME280;31859;55.030;-1.550;2022-10-31T11:37:55;69454.71;;;20.55;95.59
46127;BME280;31859;55.030;-1.550;2022-10-31T11:40:25;69454.71;;;20.55;95.59
46127;BME280;31859;55.030;-1.550;2022-10-31T11:42:57;69454.71;;;20.28;95.59
46127;BME280;31859;55.030;-1.550;2022-10-31T11:45:30;69454.71;;;20.28;95.59
46127;BME280;31859;55.030;-1.550;2022-10-31T11:47:59;69454.71;;;20.55;95.59
46127;BME280;31859;55.030;-1.550;2022-10-31T11:50:32;69454.71;;;20.28;95.59
46127;BME280;31859;55.030;-1.550;2022-10-31T11:53:01;69454.71;;;20.55;95.59
46127;BME280;31859;55.030;-1.550;2022-10-31T11:55:33;69454.71;;;20.55;95.59
46127;BME280;31859;55.030;-1.550;2022-10-31T11:58:00;69454.71;;;20.28;95.59
46127;BME280;31859;55.030;-1.550;2022-10-31T12:00:30;69454.71;;;20.77;95.59
46127;BME280;31859;55.030;-1.550;2022-10-31T12:03:11;69454.71;;;20.55;95.59
46127;BME280;31859;55.030;-1.550;2022-10-31T12:05:41;69454.71;;;20.55;95.59
46127;BME280;31859;55.030;-1.550;2022-10-31T12:08:16;69454.71;;;20.55;95.59
46127;BME280;31859;55.030;-1.550;2022-10-31T12:10:51;69454.71;;;20.55;95.59
46127;BME280;31859;55.030;-1.550;2022-10-31T12:13:32;69454.71;;;20.77;95.59
46127;BME280;31859;55.030;-1.550;2022-10-31T12:16:07;69454.71;;;20.55;95.59
46127;BME280;31859;55.030;-1.550;2022-10-31T12:18:53;69454.71;;;20.55;95.59
46127;BME280;31859;55.030;-1.550;2022-10-31T12:21:36;69454.71;;;20.55;95.59
46127;BME280;31859;55.030;-1.550;2022-10-31T12:24:14;69454.71;;;20.55;95.59
46127;BME280;31859;55.030;-1.550;2022-10-31T12:26:52;69454.71;;;20.55;95.59
46127;BME280;31859;55.030;-1.550;2022-10-31T12:29:32;69454.71;;;20.06;95.59
46127;BME280;31859;55.030;-1.550;2022-10-31T12:32:17;69454.71;;;20.06;95.59
46127;BME280;31859;55.030;-1.550;2022-10-31T12:35:02;69454.71;;;20.06;95.59
46127;BME280;31859;55.030;-1.550;2022-10-31T12:37:45;69454.71;;;20.28;95.59
46127;BME280;31859;55.030;-1.550;2022-10-31T12:40:32;69454.71;;;20.28;95.59
46127;BME280;31859;55.030;-1.550;2022-10-31T12:43:18;69454.71;;;19.79;95.59
46127;BME280;31859;55.030;-1.550;2022-10-31T12:45:54;69454.71;;;20.06;95.59
46127;BME280;31859;55.030;-1.550;2022-10-31T12:48:37;69454.71;;;20.06;95.59
46127;BME280;31859;55.030;-1.550;2022-10-31T12:51:10;69454.71;;;20.28;95.59
46127;BME280;31859;55.030;-1.550;2022-10-31T12:53:51;69454.71;;;20.06;95.59
46127;BME280;31859;55.030;-1.550;2022-10-31T12:56:35;69454.71;;;20.06;95.59
46127;BME280;31859;55.030;-1.550;2022-10-31T12:59:10;69454.71;;;19.79;95.59
46127;BME280;31859;55.030;-1.550;2022-10-31T13:01:45;69454.71;;;20.06;95.59
46127;BME280;31859;55.030;-1.550;2022-10-31T13:04:18;69454.71;;;20.06;95.59
46127;BME280;31859;55.030;-1.550;2022-10-31T13:06:52;69454.71;;;19.79;95.59
46127;BME280;31859;55.030;-1.550;2022-10-31T13:09:27;69454.71;;;19.57;95.59